Time;durP1;ratioP1;P1;durP2;ratioP2;P2;SDS_P1;SDS_P2;PMS_P1;PMS_P2;Temp;Humidity;BMP_temperature;BMP_pressure;BME280_temperature;BME280_humidity;BME280_pressure;Samples;Min_cycle;Max_cycle;Signal;HPM_P1;HPM_P2
2023/04/08 00:01:28;;;;;;;17.60;11.07;;;;;;;;;;5075522;28;20078;-77
2023/04/08 00:03:54;;;;;;;18.35;11.75;;;;;;;;;;5072815;28;20106;-76
2023/04/08 00:06:19;;;;;;;20.85;12.27;;;;;;;;;;5070689;28;20450;-76
2023/04/08 00:08:45;;;;;;;17.95;11.20;;;;;;;;;;5071178;28;20112;-77
2023/04/08 00:11:12;;;;;;;19.10;11.13;;;;;;;;;;5072055;28;20052;-76
2023/04/08 00:13:38;;;;;;;22.20;11.70;;;;;;;;;;5075700;28;20432;-76
2023/04/08 00:16:04;;;;;;;17.30;11.30;;;;;;;;;;5073845;28;20060;-77
2023/04/08 00:18:30;;;;;;;18.15;12.00;;;;;;;;;;5074256;28;20447;-76
2023/04/08 00:20:56;;;;;;;18.42;12.60;;;;;;;;;;5072595;28;20391;-76
2023/04/08 00:23:22;;;;;;;20.42;12.73;;;;;;;;;;5077808;28;20058;-77
2023/04/08 00:25:48;;;;;;;18.70;12.38;;;;;;;;;;5074957;28;20161;-76
2023/04/08 00:28:14;;;;;;;21.35;13.00;;;;;;;;;;5070702;28;20453;-76
2023/04/08 00:30:40;;;;;;;20.13;13.63;;;;;;;;;;5078677;28;20059;-76
2023/04/08 00:33:07;;;;;;;19.85;12.98;;;;;;;;;;5073898;28;20075;-77
2023/04/08 00:35:33;;;;;;;23.03;13.83;;;;;;;;;;5079470;28;20048;-76
2023/04/08 00:38:00;;;;;;;19.77;13.40;;;;;;;;;;5076075;28;20047;-77
2023/04/08 00:40:26;;;;;;;20.50;14.13;;;;;;;;;;5075285;28;20056;-77
2023/04/08 00:42:52;;;;;;;20.43;12.87;;;;;;;;;;5076759;28;20135;-77
2023/04/08 00:45:18;;;;;;;25.65;13.90;;;;;;;;;;5073234;28;20048;-78
2023/04/08 00:47:45;;;;;;;23.30;14.80;;;;;;;;;;5072853;28;20508;-77
2023/04/08 00:50:11;;;;;;;22.77;14.88;;;;;;;;;;5072676;28;20870;-77
2023/04/08 00:52:37;;;;;;;21.25;14.15;;;;;;;;;;5069255;28;20044;-77
2023/04/08 00:55:04;;;;;;;19.95;14.15;;;;;;;;;;5071010;28;20040;-76
2023/04/08 00:57:30;;;;;;;20.50;13.33;;;;;;;;;;5074677;28;20525;-76
2023/04/08 00:59:56;;;;;;;25.02;14.32;;;;;;;;;;5071530;28;20052;-76
2023/04/08 01:02:29;;;;;;;22.02;14.07;;;;;;;;;;5069650;28;20052;-77
2023/04/08 01:05:01;;;;;;;22.20;13.93;;;;;;;;;;5074877;28;20033;-77
2023/04/08 01:07:30;;;;;;;23.93;14.97;;;;;;;;;;5073504;28;20044;-77
2023/04/08 01:09:56;;;;;;;;;;;;;;;;;;5073417;28;20070;-77
2023/04/08 01:12:26;;;;;;;24.50;14.60;;;;;;;;;;5073031;28;19924;-77
2023/04/08 01:14:55;;;;;;;21.73;15.35;;;;;;;;;;5072961;28;20442;-76
2023/04/08 01:17:21;;;;;;;;;;;;;;;;;;5073986;28;20047;-76
2023/04/08 01:19:49;;;;;;;27.70;15.13;;;;;;;;;;5071510;28;19924;-76
2023/04/08 01:22:20;;;;;;;22.83;15.13;;;;;;;;;;5072320;28;20044;-76
2023/04/08 01:24:47;;;;;;;22.58;14.98;;;;;;;;;;5070503;28;20049;-76
2023/04/08 01:27:14;;;;;;;23.05;15.38;;;;;;;;;;5072177;28;20592;-76
2023/04/08 01:29:41;;;;;;;23.53;16.53;;;;;;;;;;5072878;28;20480;-76
2023/04/08 01:32:07;;;;;;;20.42;14.68;;;;;;;;;;5073467;28;20491;-77
2023/04/08 01:34:34;;;;;;;24.10;15.23;;;;;;;;;;5076101;28;20052;-77
2023/04/08 01:37:01;;;;;;;26.60;15.68;;;;;;;;;;5074775;28;20051;-77
2023/04/08 01:39:28;;;;;;;25.80;16.13;;;;;;;;;;5077406;28;20040;-75
2023/04/08 01:41:54;;;;;;;22.10;15.10;;;;;;;;;;5075261;28;20116;-76
2023/04/08 01:44:21;;;;;;;28.23;15.93;;;;;;;;;;5090640;28;20083;-76
2023/04/08 01:46:48;;;;;;;27.52;15.77;;;;;;;;;;5077164;28;20046;-77
2023/04/08 01:49:15;;;;;;;33.27;17.23;;;;;;;;;;5076405;28;20788;-76
2023/04/08 01:51:41;;;;;;;29.77;17.27;;;;;;;;;;5058217;28;20032;-76
2023/04/08 01:54:07;;;;;;;26.87;16.30;;;;;;;;;;5078147;28;20592;-76
2023/04/08 01:56:36;;;;;;;24.07;15.43;;;;;;;;;;5074660;28;20044;-76
2023/04/08 01:59:04;;;;;;;23.48;15.40;;;;;;;;;;5074208;28;20687;-76
2023/04/08 02:01:30;;;;;;;;;;;;;;;;;;5076582;28;20047;-76
2023/04/08 02:03:57;;;;;;;27.03;16.73;;;;;;;;;;5074354;28;19924;-77
2023/04/08 02:06:23;;;;;;;29.30;18.33;;;;;;;;;;5077865;28;20113;-77
2023/04/08 02:08:49;;;;;;;30.80;18.17;;;;;;;;;;5076933;28;20063;-76
2023/04/08 02:11:15;;;;;;;32.03;18.83;;;;;;;;;;5075709;28;20973;-76
2023/04/08 02:13:41;;;;;;;30.40;18.90;;;;;;;;;;5074987;28;20075;-76
2023/04/08 02:16:15;;;;;;;32.17;18.93;;;;;;;;;;5083110;28;20773;-76
2023/04/08 02:18:43;;;;;;;31.63;19.10;;;;;;;;;;5079337;28;20106;-76
2023/04/08 02:21:12;;;;;;;29.60;19.35;;;;;;;;;;5071966;28;20055;-76
2023/04/08 02:23:38;;;;;;;;;;;;;;;;;;5081709;28;20052;-76
2023/04/08 02:26:05;;;;;;;31.07;18.53;;;;;;;;;;5078047;28;19959;-75
2023/04/08 02:28:33;;;;;;;35.37;20.13;;;;;;;;;;5083315;28;20051;-76
2023/04/08 02:31:00;;;;;;;31.60;19.77;;;;;;;;;;5075958;28;20037;-75
2023/04/08 02:33:26;;;;;;;32.93;19.83;;;;;;;;;;5063952;28;20061;-76
2023/04/08 02:35:53;;;;;;;34.93;19.37;;;;;;;;;;5079154;28;20048;-76
2023/04/08 02:38:20;;;;;;;33.37;19.47;;;;;;;;;;5080306;28;20048;-76
2023/04/08 02:40:48;;;;;;;28.37;18.33;;;;;;;;;;5077734;28;20123;-75
2023/04/08 02:43:15;;;;;;;31.23;18.13;;;;;;;;;;5071511;28;20054;-76
2023/04/08 02:45:42;;;;;;;31.60;18.87;;;;;;;;;;5074499;28;20055;-77
2023/04/08 02:48:08;;;;;;;30.97;17.70;;;;;;;;;;5075570;28;20044;-76
2023/04/08 02:50:34;;;;;;;100.37;20.70;;;;;;;;;;5080463;28;20222;-76
2023/04/08 02:53:00;;;;;;;67.10;19.30;;;;;;;;;;5073955;28;20056;-76
2023/04/08 02:55:26;;;;;;;32.27;18.27;;;;;;;;;;5073657;28;20048;-76
2023/04/08 02:57:52;;;;;;;31.93;18.73;;;;;;;;;;5062274;28;20040;-76
2023/04/08 03:00:18;;;;;;;34.53;19.70;;;;;;;;;;5074834;28;20062;-76
2023/04/08 03:02:44;;;;;;;30.67;18.00;;;;;;;;;;5074639;28;20574;-76
2023/04/08 03:05:10;;;;;;;50.77;20.07;;;;;;;;;;5041431;28;20080;-77
2023/04/08 03:07:36;;;;;;;30.50;18.30;;;;;;;;;;5076231;28;20051;-76
2023/04/08 03:10:03;;;;;;;34.17;20.73;;;;;;;;;;5072258;28;20048;-75
2023/04/08 03:12:30;;;;;;;90.40;22.03;;;;;;;;;;5076778;28;20028;-77
2023/04/08 03:14:56;;;;;;;152.20;22.73;;;;;;;;;;5075453;28;20044;-77
2023/04/08 03:17:22;;;;;;;33.37;19.93;;;;;;;;;;5071774;28;20040;-76
2023/04/08 03:19:48;;;;;;;34.83;20.40;;;;;;;;;;5074164;28;20147;-76
2023/04/08 03:22:14;;;;;;;39.33;21.70;;;;;;;;;;5073189;28;20397;-76
2023/04/08 03:24:40;;;;;;;42.73;23.30;;;;;;;;;;5072762;28;20072;-76
2023/04/08 03:27:07;;;;;;;39.07;21.63;;;;;;;;;;5075517;28;20063;-76
2023/04/08 03:29:33;;;;;;;41.70;22.00;;;;;;;;;;5070507;28;20042;-76
2023/04/08 03:31:59;;;;;;;42.53;22.20;;;;;;;;;;5072398;28;20048;-76
2023/04/08 03:34:25;;;;;;;39.07;21.80;;;;;;;;;;5070139;28;20047;-75
2023/04/08 03:36:51;;;;;;;76.13;22.87;;;;;;;;;;5072940;28;20028;-76
2023/04/08 03:39:17;;;;;;;40.90;22.57;;;;;;;;;;5071401;28;20044;-77
2023/04/08 03:41:43;;;;;;;34.70;20.17;;;;;;;;;;5076321;28;20147;-76
2023/04/08 03:44:09;;;;;;;37.60;21.40;;;;;;;;;;5074895;28;20047;-76
2023/04/08 03:46:35;;;;;;;41.53;21.77;;;;;;;;;;5072924;28;20081;-76
2023/04/08 03:49:01;;;;;;;36.77;21.13;;;;;;;;;;5073273;28;20040;-75
2023/04/08 03:51:27;;;;;;;39.90;21.97;;;;;;;;;;5074417;28;20024;-75
2023/04/08 03:53:53;;;;;;;43.57;22.80;;;;;;;;;;5076220;28;20079;-76
2023/04/08 03:56:19;;;;;;;42.13;22.37;;;;;;;;;;5072103;28;20098;-76
2023/04/08 03:58:45;;;;;;;40.30;22.13;;;;;;;;;;5076109;28;20100;-77
2023/04/08 04:01:11;;;;;;;260.10;31.07;;;;;;;;;;5074406;28;20052;-76
2023/04/08 04:03:37;;;;;;;44.23;23.50;;;;;;;;;;5074547;28;20059;-78
2023/04/08 04:06:03;;;;;;;77.83;26.90;;;;;;;;;;5073348;28;20063;-76
2023/04/08 04:08:29;;;;;;;54.80;26.17;;;;;;;;;;5091373;28;20439;-77
2023/04/08 04:10:56;;;;;;;110.60;27.30;;;;;;;;;;5074678;28;20132;-76
2023/04/08 04:13:22;;;;;;;599.10;44.57;;;;;;;;;;5072375;28;20055;-79
2023/04/08 04:15:48;;;;;;;45.70;24.37;;;;;;;;;;5064082;28;20055;-76
2023/04/08 04:18:14;;;;;;;55.23;25.00;;;;;;;;;;5075874;28;20044;-76
2023/04/08 04:20:43;;;;;;;46.23;23.77;;;;;;;;;;5061924;28;20040;-75
2023/04/08 04:23:10;;;;;;;96.27;27.97;;;;;;;;;;5080559;28;20126;-76
2023/04/08 04:25:38;;;;;;;57.90;27.10;;;;;;;;;;5081120;28;20570;-76
2023/04/08 04:28:04;;;;;;;446.03;42.47;;;;;;;;;;5061592;28;20443;-76
2023/04/08 04:30:30;;;;;;;200.00;30.83;;;;;;;;;;5080440;28;20834;-78
2023/04/08 04:32:56;;;;;;;55.50;26.03;;;;;;;;;;5080791;28;20044;-78
2023/04/08 04:35:22;;;;;;;217.10;33.17;;;;;;;;;;5076302;28;20048;-77
2023/04/08 04:37:50;;;;;;;146.20;32.97;;;;;;;;;;5069819;28;20040;-76
2023/04/08 04:40:16;;;;;;;61.38;27.25;;;;;;;;;;5076698;28;21059;-76
2023/04/08 04:42:42;;;;;;;99.67;27.23;;;;;;;;;;5069141;28;20094;-77
2023/04/08 04:45:09;;;;;;;53.10;25.50;;;;;;;;;;5073996;28;20680;-76
2023/04/08 04:47:35;;;;;;;58.83;27.30;;;;;;;;;;5069955;28;20135;-77
2023/04/08 04:50:00;;;;;;;172.90;28.63;;;;;;;;;;5077138;28;20138;-78
2023/04/08 04:52:26;;;;;;;61.17;27.10;;;;;;;;;;5070520;28;20048;-76
2023/04/08 04:54:52;;;;;;;61.70;27.23;;;;;;;;;;5072986;28;20039;-76
2023/04/08 04:57:18;;;;;;;58.87;26.87;;;;;;;;;;5053321;28;20051;-76
2023/04/08 04:59:44;;;;;;;51.77;25.37;;;;;;;;;;5073426;28;20139;-77
2023/04/08 05:02:10;;;;;;;465.70;44.97;;;;;;;;;;5068895;28;20499;-76
2023/04/08 05:04:36;;;;;;;59.40;26.97;;;;;;;;;;5072420;28;20134;-76
2023/04/08 05:07:02;;;;;;;62.97;27.27;;;;;;;;;;5073332;28;20526;-76
2023/04/08 05:09:29;;;;;;;58.60;28.50;;;;;;;;;;5070781;28;20055;-76
2023/04/08 05:11:55;;;;;;;57.23;26.20;;;;;;;;;;5069709;28;20155;-76
2023/04/08 05:14:21;;;;;;;58.27;27.57;;;;;;;;;;5069721;28;20052;-76
2023/04/08 05:16:47;;;;;;;53.97;26.63;;;;;;;;;;5066446;28;20415;-77
2023/04/08 05:19:13;;;;;;;61.90;27.30;;;;;;;;;;5048787;28;20036;-76
2023/04/08 05:21:39;;;;;;;57.40;27.03;;;;;;;;;;5069774;28;20422;-77
2023/04/08 05:24:05;;;;;;;54.50;26.77;;;;;;;;;;5073299;28;20234;-76
2023/04/08 05:26:31;;;;;;;60.07;27.10;;;;;;;;;;5070175;28;20044;-76
2023/04/08 05:28:57;;;;;;;109.00;30.70;;;;;;;;;;5073861;28;20071;-78
2023/04/08 05:31:23;;;;;;;97.27;41.83;;;;;;;;;;5067678;28;20040;-76
2023/04/08 05:33:49;;;;;;;98.50;45.80;;;;;;;;;;5069915;28;20536;-76
2023/04/08 05:36:15;;;;;;;114.70;52.83;;;;;;;;;;5069532;28;21625;-76
2023/04/08 05:38:43;;;;;;;107.27;51.53;;;;;;;;;;5072465;28;20559;-76
2023/04/08 05:41:09;;;;;;;171.77;84.57;;;;;;;;;;5070529;28;20055;-76
2023/04/08 05:43:38;;;;;;;133.60;60.83;;;;;;;;;;5074245;28;20586;-76
2023/04/08 05:46:07;;;;;;;91.13;47.75;;;;;;;;;;5067584;28;20091;-76
2023/04/08 05:48:33;;;;;;;78.67;42.03;;;;;;;;;;5057621;28;20507;-76
2023/04/08 05:51:00;;;;;;;73.77;36.57;;;;;;;;;;5067842;28;20131;-76
2023/04/08 05:53:26;;;;;;;55.93;29.90;;;;;;;;;;5072137;28;20507;-77
2023/04/08 05:55:52;;;;;;;67.47;32.92;;;;;;;;;;5075104;28;20090;-77
2023/04/08 05:58:18;;;;;;;54.63;30.00;;;;;;;;;;5074388;28;20250;-76
2023/04/08 06:00:44;;;;;;;52.50;27.27;;;;;;;;;;5065330;28;20226;-76
2023/04/08 06:03:10;;;;;;;46.33;24.80;;;;;;;;;;5074560;28;20059;-76
2023/04/08 06:05:36;;;;;;;48.10;26.30;;;;;;;;;;5069798;28;20546;-76
2023/04/08 06:08:02;;;;;;;54.90;29.65;;;;;;;;;;5067247;28;20132;-76
2023/04/08 06:10:28;;;;;;;50.10;27.67;;;;;;;;;;5070806;28;20579;-77
2023/04/08 06:12:54;;;;;;;54.20;27.97;;;;;;;;;;5069601;28;20047;-78
2023/04/08 06:15:20;;;;;;;52.17;26.52;;;;;;;;;;5068841;28;20125;-77
2023/04/08 06:17:46;;;;;;;43.63;23.80;;;;;;;;;;5070971;28;20055;-76
2023/04/08 06:20:12;;;;;;;44.53;23.65;;;;;;;;;;5068372;28;20051;-76
2023/04/08 06:22:38;;;;;;;43.63;24.63;;;;;;;;;;5076299;28;20793;-76
2023/04/08 06:25:04;;;;;;;42.55;24.45;;;;;;;;;;5055507;28;20147;-77
2023/04/08 06:27:30;;;;;;;95.45;32.10;;;;;;;;;;5071473;28;20059;-77
2023/04/08 06:29:56;;;;;;;110.57;61.70;;;;;;;;;;5053479;28;20044;-77
2023/04/08 06:32:22;;;;;;;108.18;61.47;;;;;;;;;;5074499;28;20163;-77
2023/04/08 06:34:49;;;;;;;79.10;45.88;;;;;;;;;;5074049;28;20044;-77
2023/04/08 06:37:15;;;;;;;57.95;32.90;;;;;;;;;;5071518;28;20446;-77
2023/04/08 06:39:41;;;;;;;44.25;25.23;;;;;;;;;;5074212;28;20048;-77
2023/04/08 06:42:07;;;;;;;40.25;22.38;;;;;;;;;;5072224;28;20125;-76
2023/04/08 06:44:33;;;;;;;39.70;24.05;;;;;;;;;;5073790;28;20138;-77
2023/04/08 06:46:59;;;;;;;37.30;22.48;;;;;;;;;;5054626;28;20125;-77
2023/04/08 06:49:26;;;;;;;38.80;23.20;;;;;;;;;;5072053;28;20044;-77
2023/04/08 06:51:52;;;;;;;42.70;23.35;;;;;;;;;;5073439;28;20044;-76
2023/04/08 06:54:18;;;;;;;37.95;22.85;;;;;;;;;;5073981;28;20036;-78
2023/04/08 06:56:44;;;;;;;37.33;23.35;;;;;;;;;;5071303;28;20040;-76
2023/04/08 06:59:10;;;;;;;36.45;23.35;;;;;;;;;;5053179;28;20070;-77
2023/04/08 07:01:36;;;;;;;35.83;21.83;;;;;;;;;;5073877;28;20499;-77
2023/04/08 07:04:02;;;;;;;31.33;20.42;;;;;;;;;;5053816;28;20052;-76
2023/04/08 07:06:28;;;;;;;28.25;19.35;;;;;;;;;;5054977;28;20645;-77
2023/04/08 07:08:54;;;;;;;28.23;18.65;;;;;;;;;;5069615;28;20091;-77
2023/04/08 07:11:20;;;;;;;33.83;20.42;;;;;;;;;;5071915;28;20613;-76
2023/04/08 07:13:46;;;;;;;28.48;18.58;;;;;;;;;;5071284;28;20064;-76
2023/04/08 07:16:12;;;;;;;28.85;19.20;;;;;;;;;;5071997;28;20139;-78
2023/04/08 07:18:38;;;;;;;27.90;18.63;;;;;;;;;;5071160;28;20032;-77
2023/04/08 07:21:04;;;;;;;29.20;19.20;;;;;;;;;;5071906;28;20040;-76
2023/04/08 07:23:30;;;;;;;25.60;18.27;;;;;;;;;;5053196;28;20067;-76
2023/04/08 07:26:02;;;;;;;28.23;18.48;;;;;;;;;;5090814;28;20052;-77
2023/04/08 07:28:28;;;;;;;26.42;18.55;;;;;;;;;;5054782;28;20147;-76
2023/04/08 07:30:54;;;;;;;29.35;18.70;;;;;;;;;;5068779;28;20050;-76
2023/04/08 07:33:20;;;;;;;28.58;19.35;;;;;;;;;;5069146;28;20068;-76
2023/04/08 07:35:46;;;;;;;26.83;18.40;;;;;;;;;;5071173;28;20048;-76
2023/04/08 07:38:12;;;;;;;25.92;18.58;;;;;;;;;;5069260;28;20056;-77
2023/04/08 07:40:38;;;;;;;27.70;18.33;;;;;;;;;;5066906;28;20104;-77
2023/04/08 07:43:04;;;;;;;27.15;17.60;;;;;;;;;;5070255;28;20052;-77
2023/04/08 07:45:30;;;;;;;27.05;17.77;;;;;;;;;;5075865;28;20051;-77
2023/04/08 07:47:56;;;;;;;25.98;17.15;;;;;;;;;;5067076;28;20846;-77
2023/04/08 07:50:22;;;;;;;25.83;17.65;;;;;;;;;;5074631;28;20052;-81
2023/04/08 07:52:48;;;;;;;28.00;17.40;;;;;;;;;;5068968;28;20059;-81
2023/04/08 07:55:14;;;;;;;26.50;17.73;;;;;;;;;;5056852;28;20055;-81
2023/04/08 07:57:40;;;;;;;26.95;18.60;;;;;;;;;;5078148;28;20134;-81
2023/04/08 08:00:06;;;;;;;27.65;18.88;;;;;;;;;;5077811;28;20158;-81
2023/04/08 08:02:33;;;;;;;26.60;18.02;;;;;;;;;;5075613;28;20063;-82
2023/04/08 08:05:02;;;;;;;23.88;17.33;;;;;;;;;;5088661;28;20040;-84
2023/04/08 08:07:28;;;;;;;26.48;17.30;;;;;;;;;;5077137;28;20086;-84
2023/04/08 08:09:54;;;;;;;25.52;17.20;;;;;;;;;;5053380;28;20072;-84
2023/04/08 08:12:20;;;;;;;22.35;16.63;;;;;;;;;;5079727;28;20044;-84
2023/04/08 08:14:46;;;;;;;23.80;17.02;;;;;;;;;;5076886;28;20039;-85
2023/04/08 08:17:12;;;;;;;25.45;17.05;;;;;;;;;;5061402;28;20602;-86
2023/04/08 08:20:00;;;;;;;27.70;17.67;;;;;;;;;;5086577;28;20044;-86
2023/04/08 08:22:26;;;;;;;24.70;17.35;;;;;;;;;;5079153;28;20036;-86
2023/04/08 08:24:56;;;;;;;26.25;17.58;;;;;;;;;;5071620;28;20047;-86
2023/04/08 08:27:23;;;;;;;25.30;17.70;;;;;;;;;;5079169;28;20040;-86
2023/04/08 08:29:50;;;;;;;26.65;16.52;;;;;;;;;;5070041;28;20182;-85
2023/04/08 08:32:16;;;;;;;22.58;16.25;;;;;;;;;;5090001;28;20139;-86
2023/04/08 08:34:42;;;;;;;22.52;16.95;;;;;;;;;;5058973;28;20224;-82
2023/04/08 08:37:08;;;;;;;28.05;16.98;;;;;;;;;;5076277;28;20530;-83
2023/04/08 08:39:34;;;;;;;23.42;17.05;;;;;;;;;;5075531;28;20166;-84
2023/04/08 08:42:00;;;;;;;24.75;17.10;;;;;;;;;;5072687;28;20073;-84
2023/04/08 08:44:29;;;;;;;23.25;16.45;;;;;;;;;;5075757;28;20301;-82
2023/04/08 08:46:55;;;;;;;25.08;16.85;;;;;;;;;;5075662;28;20104;-80
2023/04/08 08:49:22;;;;;;;20.23;15.80;;;;;;;;;;5071782;28;20750;-84
2023/04/08 08:51:58;;;;;;;24.02;16.85;;;;;;;;;;5082657;28;20735;-84
2023/04/08 08:54:25;;;;;;;23.63;17.23;;;;;;;;;;5072879;28;20044;-84
2023/04/08 08:56:51;;;;;;;21.58;15.93;;;;;;;;;;5075981;28;20051;-84
2023/04/08 08:59:17;;;;;;;28.13;17.10;;;;;;;;;;5074444;28;20067;-84
2023/04/08 09:01:44;;;;;;;19.98;15.57;;;;;;;;;;5057957;28;20155;-82
2023/04/08 09:04:11;;;;;;;22.67;16.45;;;;;;;;;;5077701;28;20143;-84
2023/04/08 09:06:37;;;;;;;24.33;16.35;;;;;;;;;;5073941;28;20216;-84
2023/04/08 09:09:10;;;;;;;22.15;16.27;;;;;;;;;;5073934;28;20032;-85
2023/04/08 09:11:38;;;;;;;21.95;16.38;;;;;;;;;;5074101;28;20059;-85
2023/04/08 09:14:05;;;;;;;21.52;16.33;;;;;;;;;;5073929;28;20044;-86
2023/04/08 09:16:32;;;;;;;21.50;15.95;;;;;;;;;;5075067;28;20079;-85
2023/04/08 09:19:08;;;;;;;21.75;16.17;;;;;;;;;;5071938;28;20079;-80
2023/04/08 09:21:34;;;;;;;23.30;16.20;;;;;;;;;;5069964;28;20126;-82
2023/04/08 09:24:00;;;;;;;22.83;15.10;;;;;;;;;;5074354;28;20055;-83
2023/04/08 09:26:26;;;;;;;23.40;16.60;;;;;;;;;;5067024;28;20681;-82
2023/04/08 09:29:05;;;;;;;22.63;16.55;;;;;;;;;;5056357;28;20039;-82
2023/04/08 09:31:32;;;;;;;22.50;14.93;;;;;;;;;;5063116;28;20048;-82
2023/04/08 09:33:59;;;;;;;22.55;15.98;;;;;;;;;;5075439;28;20040;-84
2023/04/08 09:36:26;;;;;;;23.27;16.40;;;;;;;;;;5071272;28;20032;-84
2023/04/08 09:38:53;;;;;;;24.83;16.15;;;;;;;;;;5088613;28;20475;-84
2023/04/08 09:41:20;;;;;;;21.17;14.48;;;;;;;;;;5077440;28;20047;-83
2023/04/08 09:43:50;;;;;;;23.17;14.75;;;;;;;;;;5073455;28;20051;-83
2023/04/08 09:46:17;;;;;;;20.85;14.18;;;;;;;;;;5065178;28;20060;-85
2023/04/08 09:48:50;;;;;;;18.88;12.98;;;;;;;;;;5072475;28;20083;-85
2023/04/08 09:51:18;;;;;;;20.27;12.70;;;;;;;;;;5059101;28;20090;-85
2023/04/08 09:53:52;;;;;;;19.65;13.02;;;;;;;;;;5074553;28;20055;-84
2023/04/08 09:56:19;;;;;;;18.40;13.07;;;;;;;;;;5077183;28;20058;-85
2023/04/08 09:58:51;;;;;;;17.40;12.25;;;;;;;;;;5076427;28;20659;-85
2023/04/08 10:01:20;;;;;;;17.42;12.05;;;;;;;;;;5078756;28;20044;-85
2023/04/08 10:03:49;;;;;;;17.60;11.70;;;;;;;;;;5076592;28;20051;-83
2023/04/08 10:06:16;;;;;;;16.40;11.85;;;;;;;;;;5077919;28;20541;-85
2023/04/08 10:08:43;;;;;;;17.05;12.57;;;;;;;;;;5082885;28;20094;-83
2023/04/08 10:11:09;;;;;;;16.02;11.77;;;;;;;;;;5075171;28;20036;-85
2023/04/08 10:13:37;;;;;;;14.57;10.65;;;;;;;;;;5062844;28;20051;-85
2023/04/08 10:16:16;;;;;;;14.57;10.18;;;;;;;;;;5080720;28;20133;-86
2023/04/08 10:18:43;;;;;;;16.67;10.88;;;;;;;;;;5070987;28;20127;-85
2023/04/08 10:21:28;;;;;;;16.23;11.20;;;;;;;;;;5070420;28;20044;-87
2023/04/08 10:23:55;;;;;;;14.77;10.77;;;;;;;;;;5068442;28;20052;-86
2023/04/08 10:26:38;;;;;;;15.13;10.63;;;;;;;;;;5075264;28;20075;-85
2023/04/08 10:29:24;;;;;;;17.77;10.32;;;;;;;;;;5072982;28;20048;-85
2023/04/08 10:31:50;;;;;;;17.35;11.65;;;;;;;;;;5067619;28;20071;-83
2023/04/08 10:34:17;;;;;;;16.65;11.07;;;;;;;;;;5090863;28;20487;-84
2023/04/08 10:36:43;;;;;;;18.23;11.10;;;;;;;;;;5073841;28;20044;-85
2023/04/08 10:39:15;;;;;;;14.85;11.35;;;;;;;;;;5078171;28;20056;-86
2023/04/08 10:41:45;;;;;;;17.45;11.32;;;;;;;;;;5079000;28;20047;-86
2023/04/08 10:44:26;;;;;;;19.42;12.25;;;;;;;;;;5074435;28;20597;-85
2023/04/08 10:46:53;;;;;;;19.02;13.40;;;;;;;;;;5074254;28;20135;-84
2023/04/08 10:49:20;;;;;;;17.58;11.90;;;;;;;;;;5076525;28;20121;-85
2023/04/08 10:51:48;;;;;;;17.15;12.18;;;;;;;;;;5071401;28;20059;-84
2023/04/08 10:54:17;;;;;;;19.27;13.00;;;;;;;;;;5077153;28;20055;-85
2023/04/08 10:56:48;;;;;;;22.15;13.30;;;;;;;;;;5078380;28;20568;-82
2023/04/08 10:59:15;;;;;;;20.45;13.23;;;;;;;;;;5068704;28;20508;-83
2023/04/08 11:01:43;;;;;;;20.13;13.43;;;;;;;;;;5098005;28;20051;-86
2023/04/08 11:04:17;;;;;;;21.57;14.60;;;;;;;;;;5061731;28;20562;-86
2023/04/08 11:06:44;;;;;;;23.67;14.07;;;;;;;;;;5075504;28;20317;-85
2023/04/08 11:09:10;;;;;;;26.88;14.77;;;;;;;;;;5074994;28;20050;-87
2023/04/08 11:11:37;;;;;;;25.83;15.30;;;;;;;;;;5078994;28;20044;-87
2023/04/08 11:14:04;;;;;;;24.45;14.90;;;;;;;;;;5073030;28;20434;-87
2023/04/08 11:16:30;;;;;;;23.70;15.10;;;;;;;;;;5077957;28;20056;-87
2023/04/08 11:18:56;;;;;;;24.83;15.90;;;;;;;;;;5076028;28;20074;-82
2023/04/08 11:21:28;;;;;;;28.73;17.38;;;;;;;;;;5062640;28;20563;-87
2023/04/08 11:23:54;;;;;;;27.02;16.80;;;;;;;;;;5075534;28;20060;-85
2023/04/08 11:26:21;;;;;;;29.35;16.60;;;;;;;;;;5073868;28;20143;-85
2023/04/08 11:28:49;;;;;;;30.17;18.23;;;;;;;;;;5054794;28;20044;-88
2023/04/08 11:31:15;;;;;;;26.70;17.50;;;;;;;;;;5079171;28;20044;-90
2023/04/08 11:34:00;;;;;;;24.58;15.65;;;;;;;;;;5077290;28;20051;-86
2023/04/08 11:36:29;;;;;;;26.52;17.15;;;;;;;;;;5075632;28;20178;-90
2023/04/08 11:38:55;;;;;;;32.28;18.58;;;;;;;;;;5071301;28;20041;-89
2023/04/08 11:41:21;;;;;;;32.35;20.15;;;;;;;;;;5076210;28;20222;-90
2023/04/08 11:43:51;;;;;;;34.03;21.33;;;;;;;;;;5068358;28;20040;-90
2023/04/08 11:46:19;;;;;;;38.15;20.67;;;;;;;;;;5071116;28;20114;-89
2023/04/08 11:49:01;;;;;;;32.58;20.33;;;;;;;;;;5077646;28;20048;-84
2023/04/08 11:55:12;;;;;;;35.30;20.50;;;;;;;;;;5080397;28;20898;-88
2023/04/08 11:57:51;;;;;;;42.40;28.63;;;;;;;;;;5073011;28;20587;-80
2023/04/08 12:00:18;;;;;;;38.78;22.05;;;;;;;;;;5070617;28;20139;-78
2023/04/08 12:02:44;;;;;;;44.75;27.42;;;;;;;;;;5069362;28;20055;-78
2023/04/08 12:05:10;;;;;;;39.22;23.10;;;;;;;;;;5071900;28;20048;-78
2023/04/08 12:07:37;;;;;;;38.92;21.42;;;;;;;;;;5072051;28;20499;-78
2023/04/08 12:10:03;;;;;;;36.08;21.15;;;;;;;;;;5073506;28;20032;-78
2023/04/08 12:12:29;;;;;;;42.78;24.13;;;;;;;;;;5072694;28;20173;-76
2023/04/08 12:14:55;;;;;;;35.42;20.88;;;;;;;;;;5076858;28;20056;-79
2023/04/08 12:17:21;;;;;;;40.95;21.67;;;;;;;;;;5076725;28;20625;-78
2023/04/08 12:19:47;;;;;;;36.38;21.75;;;;;;;;;;5067827;28;20048;-78
2023/04/08 12:22:19;;;;;;;38.58;21.13;;;;;;;;;;5073241;28;20876;-76
2023/04/08 12:24:45;;;;;;;34.08;21.15;;;;;;;;;;5072132;28;20201;-79
2023/04/08 12:27:18;;;;;;;34.13;20.00;;;;;;;;;;5053700;28;20063;-76
2023/04/08 12:29:48;;;;;;;37.67;21.35;;;;;;;;;;5072935;28;20044;-79
2023/04/08 12:32:14;;;;;;;36.00;21.38;;;;;;;;;;5054313;28;20065;-80
2023/04/08 12:34:40;;;;;;;39.05;22.60;;;;;;;;;;5069165;28;20045;-77
2023/04/08 12:37:06;;;;;;;39.80;23.08;;;;;;;;;;5076734;28;20036;-78
2023/04/08 12:39:32;;;;;;;39.83;22.38;;;;;;;;;;5068334;28;20044;-75
2023/04/08 12:41:59;;;;;;;43.45;24.02;;;;;;;;;;5077158;28;20051;-77
2023/04/08 12:44:25;;;;;;;42.13;23.70;;;;;;;;;;5059199;28;20040;-77
2023/04/08 12:46:52;;;;;;;37.33;22.50;;;;;;;;;;5072529;28;20044;-76
2023/04/08 12:49:18;;;;;;;39.20;24.52;;;;;;;;;;5071658;28;20051;-76
2023/04/08 12:51:44;;;;;;;42.47;23.60;;;;;;;;;;5071521;28;20059;-79
2023/04/08 12:54:11;;;;;;;40.05;23.05;;;;;;;;;;5072048;28;20048;-79
2023/04/08 12:56:38;;;;;;;37.63;23.25;;;;;;;;;;5073289;28;20115;-78
2023/04/08 12:59:04;;;;;;;39.08;21.98;;;;;;;;;;5072820;28;20044;-79
2023/04/08 13:01:30;;;;;;;42.47;25.85;;;;;;;;;;5067013;28;20449;-80
2023/04/08 13:03:56;;;;;;;39.20;22.88;;;;;;;;;;5072827;28;20056;-79
2023/04/08 13:06:22;;;;;;;37.17;23.33;;;;;;;;;;5088947;28;20097;-79
2023/04/08 13:08:48;;;;;;;35.20;21.90;;;;;;;;;;5070421;28;20071;-80
2023/04/08 13:11:14;;;;;;;35.33;20.73;;;;;;;;;;5069700;28;20130;-79
2023/04/08 13:13:40;;;;;;;36.40;20.02;;;;;;;;;;5076808;28;20448;-79
2023/04/08 13:16:06;;;;;;;34.17;20.95;;;;;;;;;;5074463;28;20435;-79
2023/04/08 13:18:32;;;;;;;35.35;21.20;;;;;;;;;;5070442;28;20044;-78
2023/04/08 13:20:59;;;;;;;31.00;20.73;;;;;;;;;;5075571;28;20050;-80
2023/04/08 13:23:25;;;;;;;32.65;20.90;;;;;;;;;;5072791;28;20120;-80
2023/04/08 13:25:51;;;;;;;34.25;21.10;;;;;;;;;;5077475;28;20048;-79
2023/04/08 13:28:17;;;;;;;31.83;21.17;;;;;;;;;;5070634;28;20190;-79
2023/04/08 13:30:43;;;;;;;34.55;22.10;;;;;;;;;;5081012;28;20083;-79
2023/04/08 13:33:09;;;;;;;33.85;21.60;;;;;;;;;;5077072;28;20131;-80
2023/04/08 13:35:41;;;;;;;37.20;23.60;;;;;;;;;;5073774;28;20062;-79
2023/04/08 13:38:07;;;;;;;35.65;23.35;;;;;;;;;;5065020;28;20099;-80
2023/04/08 13:40:33;;;;;;;37.15;23.73;;;;;;;;;;5091484;28;20083;-79
2023/04/08 13:43:00;;;;;;;41.60;26.42;;;;;;;;;;5095682;28;20044;-79
2023/04/08 13:45:26;;;;;;;40.78;25.77;;;;;;;;;;5075282;28;20056;-79
2023/04/08 13:47:52;;;;;;;37.30;24.33;;;;;;;;;;5076527;28;20051;-80
2023/04/08 13:50:18;;;;;;;35.25;24.80;;;;;;;;;;5076136;28;20062;-82
2023/04/08 13:52:44;;;;;;;42.85;26.90;;;;;;;;;;5072898;28;20758;-78
2023/04/08 13:55:10;;;;;;;39.85;26.25;;;;;;;;;;5090124;28;20125;-79
2023/04/08 13:57:36;;;;;;;40.50;27.20;;;;;;;;;;5076712;28;20121;-77
2023/04/08 14:00:02;;;;;;;41.47;27.83;;;;;;;;;;5074749;28;20059;-78
2023/04/08 14:02:28;;;;;;;44.47;27.15;;;;;;;;;;5072694;28;20044;-78
2023/04/08 14:04:55;;;;;;;42.30;29.92;;;;;;;;;;5075599;28;20089;-80
2023/04/08 14:07:21;;;;;;;44.03;30.80;;;;;;;;;;5072186;28;20052;-79
2023/04/08 14:09:47;;;;;;;51.95;31.23;;;;;;;;;;5075561;28;20044;-78
2023/04/08 14:12:13;;;;;;;48.58;31.95;;;;;;;;;;5074816;28;20502;-80
2023/04/08 14:14:39;;;;;;;50.00;32.15;;;;;;;;;;5076615;28;20066;-79
2023/04/08 14:17:05;;;;;;;51.42;33.03;;;;;;;;;;5092462;28;20664;-79
2023/04/08 14:19:32;;;;;;;51.90;34.35;;;;;;;;;;5059414;28;20083;-79
2023/04/08 14:21:58;;;;;;;48.95;33.33;;;;;;;;;;5054697;28;20051;-80